createdAt,value
2023-01-13T00:00:34.853Z,95276.88
2023-01-13T00:03:18.168Z,95278.22
2023-01-13T00:06:01.627Z,95283.81
2023-01-13T00:08:45.198Z,95282.59
2023-01-13T00:11:28.322Z,95287.41
2023-01-13T00:14:11.386Z,95287.16
2023-01-13T00:16:55.949Z,95284.84
2023-01-13T00:19:38.974Z,95289.28
2023-01-13T00:22:22.025Z,95286.78
2023-01-13T00:25:06.756Z,95291.47
2023-01-13T00:27:50.120Z,95284.84
2023-01-13T00:30:34.183Z,95286.41
2023-01-13T00:33:18.625Z,95294.09
2023-01-13T00:36:02.910Z,95288.63
2023-01-13T00:38:47.830Z,95293.13
2023-01-13T00:41:50.907Z,95281.63
2023-01-13T00:44:32.879Z,95290.28
2023-01-13T00:47:15.966Z,95289.28
2023-01-13T00:50:00.408Z,95285.75
2023-01-13T00:52:43.533Z,95287.88
2023-01-13T00:55:26.556Z,95289.94
2023-01-13T00:58:09.617Z,95280.72
2023-01-13T01:00:52.796Z,95277.97
2023-01-13T01:03:36.797Z,95277.81
2023-01-13T01:06:24.878Z,95278.84
2023-01-13T01:09:08.174Z,95270.81
2023-01-13T01:11:51.202Z,95268.88
2023-01-13T01:14:35.141Z,95270.00
2023-01-13T01:17:18.380Z,95264.84
2023-01-13T01:20:01.502Z,95267.09
2023-01-13T01:22:45.995Z,95266.22
2023-01-13T01:25:29.048Z,95265.94
2023-01-13T01:28:12.039Z,95262.56
2023-01-13T01:30:55.699Z,95260.41
2023-01-13T01:33:38.724Z,95261.53
2023-01-13T01:36:24.243Z,95262.84
2023-01-13T01:39:08.711Z,95259.66
2023-01-13T01:42:09.545Z,95260.00
2023-01-13T01:45:01.927Z,95245.19
2023-01-13T01:47:46.890Z,95250.34
2023-01-13T01:50:30.766Z,95247.31
2023-01-13T01:53:19.768Z,95248.31
2023-01-13T01:56:04.827Z,95250.44
2023-01-13T01:58:52.241Z,95257.69
2023-01-13T02:01:35.634Z,95252.00
2023-01-13T02:04:24.531Z,95252.66
2023-01-13T02:07:08.441Z,95254.56
2023-01-13T02:09:52.878Z,95249.34
2023-01-13T02:12:38.490Z,95253.31
2023-01-13T02:15:24.228Z,95253.94
2023-01-13T02:18:22.194Z,95252.34
2023-01-13T02:21:39.755Z,95248.06
2023-01-13T02:24:54.028Z,95235.50
2023-01-13T02:27:59.470Z,95243.03
2023-01-13T02:31:04.597Z,95241.13
2023-01-13T02:33:59.554Z,95237.75
2023-01-13T02:36:52.208Z,95245.72
2023-01-13T02:39:39.725Z,95240.88
2023-01-13T02:42:46.006Z,95240.53
2023-01-13T02:45:33.634Z,95246.94
2023-01-13T02:48:20.428Z,95247.56
2023-01-13T02:51:07.927Z,95248.44
2023-01-13T02:53:56.511Z,95246.47
2023-01-13T02:56:46.267Z,95245.56
2023-01-13T02:59:32.591Z,95241.91
2023-01-13T03:02:20.319Z,95250.69
2023-01-13T03:05:05.705Z,95249.56
2023-01-13T03:08:15.596Z,95246.09
2023-01-13T03:11:05.186Z,95244.16
2023-01-13T03:14:05.850Z,95240.88
2023-01-13T03:17:00.932Z,95242.50
2023-01-13T03:19:48.315Z,95246.22
2023-01-13T03:22:41.449Z,95243.50
2023-01-13T03:25:29.793Z,95242.34
2023-01-13T03:28:20.404Z,95252.28
2023-01-13T03:31:09.088Z,95240.13
2023-01-13T03:33:57.459Z,95246.22
2023-01-13T03:36:42.906Z,95252.97
2023-01-13T03:39:32.928Z,95251.75
2023-01-13T03:42:22.191Z,95260.22
2023-01-13T03:45:10.748Z,95248.88
2023-01-13T03:47:58.644Z,95247.00
2023-01-13T03:50:48.694Z,95253.09
2023-01-13T03:53:35.735Z,95260.97
2023-01-13T03:56:30.312Z,95255.03
2023-01-13T03:59:18.632Z,95261.44
2023-01-13T04:02:08.125Z,95251.88
2023-01-13T04:04:56.300Z,95262.94
2023-01-13T04:07:51.873Z,95246.66
2023-01-13T04:10:42.001Z,95252.50
2023-01-13T04:13:33.423Z,95260.63
2023-01-13T04:16:16.801Z,95262.28
2023-01-13T04:18:59.934Z,95262.72
2023-01-13T04:21:43.400Z,95272.59
2023-01-13T04:24:26.713Z,95269.84
2023-01-13T04:27:09.760Z,95269.75
2023-01-13T04:29:54.212Z,95274.84
2023-01-13T04:32:37.548Z,95277.25
2023-01-13T04:35:20.606Z,95275.53
2023-01-13T04:38:04.710Z,95277.31
2023-01-13T04:40:47.996Z,95278.47
2023-01-13T04:43:31.038Z,95276.69
2023-01-13T04:46:16.195Z,95274.94
2023-01-13T04:48:59.266Z,95282.00
2023-01-13T04:51:42.451Z,95277.41
2023-01-13T04:54:25.760Z,95272.53
2023-01-13T04:57:09.045Z,95285.75
2023-01-13T04:59:52.118Z,95280.84
2023-01-13T05:02:37.060Z,95282.00
2023-01-13T05:05:20.422Z,95277.66
2023-01-13T05:08:03.535Z,95280.69
2023-01-13T05:10:46.572Z,95286.44
2023-01-13T05:13:46.758Z,95289.28
2023-01-13T05:16:47.421Z,95287.13
2023-01-13T05:19:34.043Z,95284.81
2023-01-13T05:22:34.643Z,95283.78
2023-01-13T05:25:25.327Z,95290.19
2023-01-13T05:28:09.367Z,95293.41
2023-01-13T05:30:52.633Z,95292.69
2023-01-13T05:33:36.068Z,95292.69
2023-01-13T05:36:20.631Z,95294.59
2023-01-13T05:39:03.739Z,95293.19
2023-01-13T05:42:04.482Z,95297.81
2023-01-13T05:44:47.568Z,95301.53
2023-01-13T05:47:30.655Z,95302.97
2023-01-13T05:50:13.992Z,95303.16
2023-01-13T05:52:58.674Z,95296.41
2023-01-13T05:55:42.417Z,95304.47
2023-01-13T05:58:28.368Z,95309.00
2023-01-13T06:01:11.543Z,95300.81
2023-01-13T06:03:54.698Z,95304.59
2023-01-13T06:06:37.746Z,95303.06
2023-01-13T06:09:22.832Z,95311.66
2023-01-13T06:12:06.698Z,95312.63
2023-01-13T06:14:49.797Z,95310.88
2023-01-13T06:17:33.005Z,95310.31
2023-01-13T06:20:17.111Z,95325.00
2023-01-13T06:23:01.044Z,95318.09
2023-01-13T06:25:51.229Z,95322.66
2023-01-13T06:28:34.983Z,95319.53
2023-01-13T06:31:18.344Z,95319.00
2023-01-13T06:34:06.058Z,95321.13
2023-01-13T06:36:53.589Z,95322.16
2023-01-13T06:39:36.918Z,95322.44
2023-01-13T06:42:38.954Z,95320.25
2023-01-13T06:45:23.086Z,95326.22
2023-01-13T06:48:06.897Z,95326.13
2023-01-13T06:50:51.052Z,95324.66
2023-01-13T06:53:34.238Z,95323.16
2023-01-13T06:56:18.317Z,95325.19
2023-01-13T06:59:02.848Z,95320.13
2023-01-13T07:01:46.231Z,95328.75
2023-01-13T07:04:29.602Z,95327.59
2023-01-13T07:07:13.207Z,95328.22
2023-01-13T07:09:56.333Z,95320.22
2023-01-13T07:12:59.902Z,95325.72
2023-01-13T07:15:53.222Z,95321.97
2023-01-13T07:18:37.630Z,95317.91
2023-01-13T07:21:21.263Z,95314.78
2023-01-13T07:24:05.374Z,95316.41
2023-01-13T07:26:48.391Z,95314.94
2023-01-13T07:29:31.580Z,95316.03
2023-01-13T07:32:16.655Z,95311.56
2023-01-13T07:35:04.843Z,95313.03
2023-01-13T07:37:49.934Z,95316.16
2023-01-13T07:40:33.497Z,95311.28
2023-01-13T07:43:33.922Z,95312.19
2023-01-13T07:46:17.153Z,95307.81
2023-01-13T07:49:02.192Z,95312.94
2023-01-13T07:51:48.246Z,95309.06
2023-01-13T07:54:40.199Z,95297.00
2023-01-13T07:57:23.973Z,95310.34
2023-01-13T08:00:08.192Z,95319.31
2023-01-13T08:02:51.603Z,95321.53
2023-01-13T08:05:37.426Z,95320.13
2023-01-13T08:08:20.658Z,95324.72
2023-01-13T08:11:06.773Z,95326.53
2023-01-13T08:13:49.928Z,95318.81
2023-01-13T08:16:35.300Z,95324.00
2023-01-13T08:19:18.665Z,95315.72
2023-01-13T08:22:03.403Z,95316.09
2023-01-13T08:24:46.583Z,95310.97
2023-01-13T08:27:29.694Z,95311.81
2023-01-13T08:30:13.348Z,95306.66
2023-01-13T08:32:56.507Z,95309.50
2023-01-13T08:35:39.936Z,95319.03
2023-01-13T08:38:25.144Z,95299.31
2023-01-13T08:41:12.028Z,95305.63
2023-01-13T08:43:55.180Z,95306.34
2023-01-13T08:46:42.167Z,95300.94
2023-01-13T08:49:26.331Z,95293.41
2023-01-13T08:52:09.714Z,95299.75
2023-01-13T08:54:54.279Z,95296.97
2023-01-13T08:57:37.490Z,95299.97
2023-01-13T09:00:23.685Z,95296.63
2023-01-13T09:03:06.804Z,95297.72
2023-01-13T09:05:50.066Z,95300.91
2023-01-13T09:08:33.239Z,95297.22
2023-01-13T09:11:40.159Z,95302.03
2023-01-13T09:14:26.775Z,95300.28
2023-01-13T09:17:10.077Z,95300.34
2023-01-13T09:19:53.201Z,95301.31
2023-01-13T09:22:37.776Z,95299.47
2023-01-13T09:25:24.054Z,95290.09
2023-01-13T09:28:09.720Z,95290.94
2023-01-13T09:30:54.396Z,95292.56
2023-01-13T09:33:54.807Z,95296.75
2023-01-13T09:36:37.894Z,95293.81
2023-01-13T09:39:22.518Z,95291.69
2023-01-13T09:42:32.068Z,95295.84
2023-01-13T09:45:20.488Z,95299.47
2023-01-13T09:48:10.059Z,95300.88
2023-01-13T09:51:01.949Z,95296.59
2023-01-13T09:53:49.934Z,95299.81
2023-01-13T09:56:33.081Z,95304.00
2023-01-13T09:59:17.365Z,95301.31
2023-01-13T10:02:14.902Z,95289.31
2023-01-13T10:05:07.399Z,95291.25
2023-01-13T10:07:53.398Z,95299.66
2023-01-13T10:10:43.176Z,95285.09
2023-01-13T10:13:27.760Z,95290.59
2023-01-13T10:16:25.325Z,95284.91
2023-01-13T10:19:17.387Z,95282.75
2023-01-13T10:22:17.185Z,95281.38
2023-01-13T10:25:20.644Z,95279.22
2023-01-13T10:28:11.638Z,95269.34
2023-01-13T10:30:54.882Z,95277.50
2023-01-13T10:33:38.285Z,95274.50
2023-01-13T10:36:23.385Z,95276.56
2023-01-13T10:39:11.371Z,95267.94
2023-01-13T10:42:03.975Z,95275.72
2023-01-13T10:44:52.595Z,95268.84
2023-01-13T10:47:37.283Z,95272.81
2023-01-13T10:50:25.479Z,95260.56
2023-01-13T10:53:23.827Z,95267.50
2023-01-13T10:56:07.297Z,95261.59
2023-01-13T10:58:50.461Z,95262.53
2023-01-13T11:01:34.002Z,95260.56
2023-01-13T11:04:40.751Z,95261.88
2023-01-13T11:07:31.328Z,95256.91
2023-01-13T11:10:24.693Z,95254.66
2023-01-13T11:13:14.820Z,95246.13
2023-01-13T11:16:03.494Z,95252.78
2023-01-13T11:19:02.579Z,95248.25
2023-01-13T11:21:53.306Z,95246.84
2023-01-13T11:24:40.526Z,95240.25
2023-01-13T11:27:31.430Z,95233.06
2023-01-13T11:30:31.620Z,95235.28
2023-01-13T11:33:32.054Z,95233.88
2023-01-13T11:36:20.576Z,95238.88
2023-01-13T11:39:17.951Z,95240.44
2023-01-13T11:42:24.333Z,95224.97
2023-01-13T11:45:19.813Z,95228.03
2023-01-13T11:48:03.822Z,95232.00
2023-01-13T11:50:54.008Z,95227.69
2023-01-13T11:53:53.073Z,95223.41
2023-01-13T11:56:55.297Z,95231.34
2023-01-13T11:59:59.965Z,95215.81
2023-01-13T12:02:53.900Z,95229.03
2023-01-13T12:05:39.756Z,95221.25
2023-01-13T12:08:35.567Z,95222.28
2023-01-13T12:11:26.741Z,95220.47
2023-01-13T12:14:21.311Z,95217.94
2023-01-13T12:17:12.786Z,95220.34
2023-01-13T12:19:57.519Z,95222.72
2023-01-13T12:22:42.419Z,95209.16
2023-01-13T12:25:33.779Z,95214.91
2023-01-13T12:28:21.894Z,95210.28
2023-01-13T12:31:05.334Z,95213.34
2023-01-13T12:34:00.629Z,95212.72
2023-01-13T12:36:58.401Z,95213.81
2023-01-13T12:39:51.581Z,95214.19
2023-01-13T12:43:00.047Z,95220.19
2023-01-13T12:45:44.667Z,95219.03
2023-01-13T12:48:49.451Z,95217.78
2023-01-13T12:51:35.771Z,95218.78
2023-01-13T12:55:17.753Z,95221.56
2023-01-13T12:58:16.515Z,95220.66
2023-01-13T13:01:09.691Z,95217.94
2023-01-13T13:04:10.538Z,95223.09
2023-01-13T13:07:05.656Z,95226.47
2023-01-13T13:09:54.539Z,95229.91
2023-01-13T13:13:12.452Z,95237.47
2023-01-13T13:16:36.340Z,95241.84
2023-01-13T13:19:48.193Z,95249.81
2023-01-13T13:22:45.969Z,95244.81
2023-01-13T13:25:30.822Z,95244.22
2023-01-13T13:28:25.122Z,95247.19
2023-01-13T13:31:31.529Z,95244.38
2023-01-13T13:34:26.292Z,95247.34
2023-01-13T13:37:32.771Z,95243.94
2023-01-13T13:40:34.588Z,95238.88
2023-01-13T13:43:39.183Z,95248.22
2023-01-13T13:46:45.665Z,95247.66
2023-01-13T13:49:39.795Z,95248.69
2023-01-13T13:52:26.839Z,95252.06
2023-01-13T13:55:18.746Z,95247.84
2023-01-13T13:58:02.736Z,95247.25
2023-01-13T14:00:49.336Z,95243.50
2023-01-13T14:03:37.809Z,95252.06
2023-01-13T14:06:25.335Z,95245.88
2023-01-13T14:09:18.070Z,95245.66
2023-01-13T14:12:03.969Z,95252.22
2023-01-13T14:14:48.322Z,95252.06
2023-01-13T14:17:32.981Z,95246.88
2023-01-13T14:20:19.754Z,95258.81
2023-01-13T14:23:05.469Z,95255.44
2023-01-13T14:25:50.016Z,95256.75
2023-01-13T14:28:36.770Z,95259.19
2023-01-13T14:31:22.842Z,95256.44
2023-01-13T14:34:31.068Z,95258.63
2023-01-13T14:37:26.291Z,95265.09
2023-01-13T14:40:49.539Z,95251.59
2023-01-13T14:43:32.672Z,95253.19
2023-01-13T14:46:17.713Z,95256.31
2023-01-13T14:49:02.496Z,95256.75
2023-01-13T14:51:46.985Z,95258.69
2023-01-13T14:54:48.757Z,95260.06
2023-01-13T14:57:33.656Z,95264.16
2023-01-13T15:00:23.674Z,95268.53
2023-01-13T15:03:08.932Z,95268.72
2023-01-13T15:05:53.749Z,95272.06
2023-01-13T15:08:40.473Z,95265.31
2023-01-13T15:11:26.174Z,95272.84
2023-01-13T15:14:12.216Z,95273.59
2023-01-13T15:16:55.263Z,95277.53
2023-01-13T15:19:38.291Z,95275.09
2023-01-13T15:22:21.387Z,95275.53
2023-01-13T15:25:06.848Z,95282.69
2023-01-13T15:27:53.417Z,95280.72
2023-01-13T15:30:36.546Z,95280.91
2023-01-13T15:33:20.808Z,95279.75
2023-01-13T15:36:04.548Z,95282.47
2023-01-13T15:38:47.657Z,95283.75
2023-01-13T15:41:49.786Z,95280.25
2023-01-13T15:44:50.862Z,95286.09
2023-01-13T15:47:34.205Z,95281.59
2023-01-13T15:50:20.953Z,95280.16
2023-01-13T15:53:04.168Z,95286.09
2023-01-13T15:55:50.589Z,95285.72
2023-01-13T15:58:35.074Z,95281.31
2023-01-13T16:01:21.058Z,95292.47
2023-01-13T16:04:07.427Z,95286.09
2023-01-13T16:06:50.574Z,95284.91
2023-01-13T16:09:33.622Z,95289.13
2023-01-13T16:12:16.972Z,95292.06
2023-01-13T16:15:01.770Z,95285.31
2023-01-13T16:17:46.300Z,95293.34
2023-01-13T16:20:29.847Z,95289.59
2023-01-13T16:23:13.386Z,95282.94
2023-01-13T16:25:56.489Z,95273.44
2023-01-13T16:28:39.751Z,95276.16
2023-01-13T16:31:30.795Z,95286.44
2023-01-13T16:34:14.029Z,95287.19
2023-01-13T16:36:57.096Z,95280.97
2023-01-13T16:39:40.206Z,95284.16
2023-01-13T16:42:23.741Z,95283.63
2023-01-13T16:45:09.732Z,95281.25
2023-01-13T16:47:54.711Z,95288.66
2023-01-13T16:50:41.730Z,95287.28
2023-01-13T16:53:25.411Z,95289.50
2023-01-13T16:56:20.531Z,95282.53
2023-01-13T16:59:08.627Z,95289.00
2023-01-13T17:01:52.343Z,95288.03
2023-01-13T17:04:37.251Z,95284.06
2023-01-13T17:07:20.615Z,95292.75
2023-01-13T17:10:04.232Z,95283.09
2023-01-13T17:12:47.443Z,95279.44
2023-01-13T17:15:30.785Z,95290.47
2023-01-13T17:18:14.657Z,95283.88
2023-01-13T17:21:00.150Z,95278.47
2023-01-13T17:23:43.637Z,95281.66
2023-01-13T17:26:32.406Z,95284.31
2023-01-13T17:29:17.345Z,95281.97
2023-01-13T17:32:01.550Z,95281.84
2023-01-13T17:34:45.220Z,95280.72
2023-01-13T17:37:29.739Z,95284.59
2023-01-13T17:40:14.156Z,95287.84
2023-01-13T17:42:57.539Z,95288.50
2023-01-13T17:45:42.946Z,95288.88
2023-01-13T17:48:26.566Z,95282.94
2023-01-13T17:51:16.656Z,95291.66
2023-01-13T17:54:01.163Z,95289.41
2023-01-13T17:56:44.854Z,95293.56
2023-01-13T17:59:28.026Z,95286.66
2023-01-13T18:02:13.846Z,95289.63
2023-01-13T18:04:57.167Z,95280.75
2023-01-13T18:07:40.512Z,95283.28
2023-01-13T18:10:25.743Z,95296.47
2023-01-13T18:13:10.071Z,95297.59
2023-01-13T18:16:01.930Z,95293.59
2023-01-13T18:18:47.048Z,95300.38
2023-01-13T18:21:47.681Z,95294.56
2023-01-13T18:24:48.247Z,95294.75
2023-01-13T18:27:35.678Z,95291.25
2023-01-13T18:30:19.069Z,95293.25
2023-01-13T18:33:03.467Z,95291.81
2023-01-13T18:35:47.055Z,95295.63
2023-01-13T18:38:30.207Z,95291.84
2023-01-13T18:41:27.863Z,95292.72
2023-01-13T18:44:12.798Z,95292.59
2023-01-13T18:46:56.034Z,95302.78
2023-01-13T18:49:39.520Z,95296.31
2023-01-13T18:52:24.293Z,95297.09
2023-01-13T18:55:08.284Z,95293.00
2023-01-13T18:57:52.324Z,95290.25
2023-01-13T19:00:38.109Z,95285.34
2023-01-13T19:03:30.056Z,95293.81
2023-01-13T19:06:14.024Z,95288.69
2023-01-13T19:08:58.302Z,95296.28
2023-01-13T19:11:42.550Z,95289.28
2023-01-13T19:14:38.365Z,95277.84
2023-01-13T19:17:25.426Z,95273.25
2023-01-13T19:20:11.539Z,95284.25
2023-01-13T19:22:56.029Z,95274.91
2023-01-13T19:25:39.276Z,95276.00
2023-01-13T19:28:23.251Z,95281.66
2023-01-13T19:31:08.364Z,95284.00
2023-01-13T19:33:53.068Z,95286.94
2023-01-13T19:36:36.382Z,95283.00
2023-01-13T19:39:19.833Z,95278.22
2023-01-13T19:42:25.112Z,95280.13
2023-01-13T19:45:28.344Z,95284.09
2023-01-13T19:48:12.737Z,95274.59
2023-01-13T19:50:57.560Z,95277.00
2023-01-13T19:53:40.782Z,95264.03
2023-01-13T19:56:25.173Z,95278.09
2023-01-13T19:59:09.515Z,95281.28
2023-01-13T20:01:52.774Z,95275.16
2023-01-13T20:04:39.416Z,95282.25
2023-01-13T20:07:26.663Z,95278.16
2023-01-13T20:10:10.930Z,95277.66
2023-01-13T20:12:54.382Z,95272.97
2023-01-13T20:15:40.166Z,95277.72
2023-01-13T20:18:23.734Z,95275.72
2023-01-13T20:21:08.542Z,95284.84
2023-01-13T20:24:01.879Z,95271.22
2023-01-13T20:26:45.788Z,95279.22
2023-01-13T20:29:30.381Z,95278.47
2023-01-13T20:32:13.541Z,95274.06
2023-01-13T20:34:56.716Z,95276.53
2023-01-13T20:37:40.649Z,95270.25
2023-01-13T20:40:25.770Z,95266.81
2023-01-13T20:43:08.187Z,95249.56
2023-01-13T20:45:51.788Z,95262.50
2023-01-13T20:48:34.873Z,95265.00
2023-01-13T20:51:18.500Z,95261.91
2023-01-13T20:54:01.726Z,95255.38
2023-01-13T20:56:46.778Z,95254.03
2023-01-13T20:59:29.871Z,95263.50
2023-01-13T21:02:14.918Z,95261.63
2023-01-13T21:04:59.156Z,95258.69
2023-01-13T21:07:43.584Z,95257.50
2023-01-13T21:10:26.687Z,95258.81
2023-01-13T21:13:29.801Z,95245.81
2023-01-13T21:16:12.980Z,95263.72
2023-01-13T21:19:07.197Z,95264.81
2023-01-13T21:21:50.323Z,95250.78
2023-01-13T21:24:33.440Z,95271.75
2023-01-13T21:27:16.699Z,95251.69
2023-01-13T21:30:04.138Z,95268.69
2023-01-13T21:32:47.845Z,95267.78
2023-01-13T21:35:30.947Z,95263.00
2023-01-13T21:38:13.982Z,95272.81
2023-01-13T21:40:59.825Z,95268.50
2023-01-13T21:44:00.115Z,95267.72
2023-01-13T21:47:02.006Z,95269.50
2023-01-13T21:49:45.171Z,95275.31
2023-01-13T21:52:28.493Z,95279.97
2023-01-13T21:55:20.437Z,95272.19
2023-01-13T21:58:10.671Z,95275.69
2023-01-13T22:00:54.312Z,95271.09
2023-01-13T22:03:53.307Z,95268.19
2023-01-13T22:06:36.368Z,95270.72
2023-01-13T22:09:19.628Z,95265.53
2023-01-13T22:12:02.722Z,95272.16
2023-01-13T22:14:45.739Z,95266.72
2023-01-13T22:17:31.653Z,95260.00
2023-01-13T22:20:17.055Z,95263.41
2023-01-13T22:23:00.381Z,95263.94
2023-01-13T22:25:43.388Z,95258.69
2023-01-13T22:28:34.205Z,95265.31
2023-01-13T22:31:19.630Z,95269.50
2023-01-13T22:34:02.672Z,95254.03
2023-01-13T22:36:47.197Z,95247.66
2023-01-13T22:39:30.516Z,95244.88
2023-01-13T22:42:13.584Z,95255.72
2023-01-13T22:44:56.918Z,95249.78
2023-01-13T22:47:40.519Z,95243.53
2023-01-13T22:50:23.606Z,95252.66
2023-01-13T22:53:08.040Z,95251.22
2023-01-13T22:55:58.039Z,95250.47
2023-01-13T22:58:41.066Z,95252.25
2023-01-13T23:01:25.002Z,95252.19
2023-01-13T23:04:08.242Z,95245.88
2023-01-13T23:06:51.715Z,95248.47
2023-01-13T23:09:36.502Z,95254.88
2023-01-13T23:12:19.821Z,95253.00
2023-01-13T23:15:02.845Z,95250.28
2023-01-13T23:17:45.868Z,95251.09
2023-01-13T23:20:28.935Z,95246.69
2023-01-13T23:23:12.266Z,95250.00
2023-01-13T23:25:57.133Z,95246.16
2023-01-13T23:28:40.658Z,95236.97
2023-01-13T23:31:23.833Z,95234.25
2023-01-13T23:34:06.934Z,95239.56
2023-01-13T23:36:50.080Z,95237.53
2023-01-13T23:39:33.175Z,95239.81
2023-01-13T23:42:19.488Z,95242.00
2023-01-13T23:45:02.480Z,95238.69
2023-01-13T23:47:45.565Z,95234.75
2023-01-13T23:50:28.610Z,95239.56
2023-01-13T23:53:11.891Z,95238.38
2023-01-13T23:55:58.298Z,95235.97
2023-01-13T23:58:43.520Z,95239.03
